createdAt,value
2017-05-06T00:00:40.238Z,0
2017-05-06T00:01:40.277Z,0
2017-05-06T00:02:40.609Z,0
2017-05-06T00:03:40.652Z,0
2017-05-06T00:04:40.658Z,0
2017-05-06T00:05:40.682Z,0
2017-05-06T00:06:40.600Z,0
2017-05-06T00:07:40.697Z,0
2017-05-06T00:08:41.054Z,0
2017-05-06T00:09:40.485Z,0
2017-05-06T00:10:40.553Z,0
2017-05-06T00:11:40.548Z,0
2017-05-06T00:12:40.866Z,0
2017-05-06T00:13:41.496Z,0
2017-05-06T00:14:40.623Z,0
2017-05-06T00:15:41.560Z,0
2017-05-06T00:16:41.265Z,0
2017-05-06T00:17:41.001Z,0
2017-05-06T00:18:41.346Z,0
2017-05-06T00:19:43.962Z,0
2017-05-06T00:20:40.973Z,0
2017-05-06T00:21:40.797Z,0
2017-05-06T00:22:41.115Z,0
2017-05-06T00:23:42.665Z,0
2017-05-06T00:24:40.923Z,0
2017-05-06T00:25:42.362Z,0
2017-05-06T00:26:40.972Z,0
2017-05-06T00:27:41.713Z,0
2017-05-06T00:28:41.281Z,0
2017-05-06T00:29:41.008Z,0
2017-05-06T00:30:41.035Z,0
2017-05-06T00:31:41.062Z,0
2017-05-06T00:32:41.701Z,0
2017-05-06T00:33:41.729Z,0
2017-05-06T00:34:41.441Z,0
2017-05-06T00:35:41.481Z,0
2017-05-06T00:36:41.493Z,0
2017-05-06T00:37:41.523Z,0
2017-05-06T00:38:41.877Z,0
2017-05-06T00:39:41.880Z,0
2017-05-06T00:40:41.604Z,0
2017-05-06T00:41:41.628Z,0
2017-05-06T00:42:41.363Z,0
2017-05-06T00:43:42.298Z,0
2017-05-06T00:44:41.754Z,0
2017-05-06T00:45:41.435Z,0
2017-05-06T00:46:41.768Z,0
2017-05-06T00:47:42.388Z,0
2017-05-06T00:48:41.822Z,0
2017-05-06T00:49:42.446Z,0
2017-05-06T00:50:41.580Z,0
2017-05-06T00:51:41.799Z,0
2017-05-06T00:52:42.245Z,0
2017-05-06T00:53:41.948Z,0
2017-05-06T00:54:41.972Z,0
2017-05-06T00:55:42.297Z,0
2017-05-06T00:56:42.648Z,0
2017-05-06T00:57:42.356Z,0
2017-05-06T00:58:41.807Z,0
2017-05-06T00:59:42.411Z,0
2017-05-06T01:00:41.886Z,0
2017-05-06T01:01:41.850Z,0
2017-05-06T01:02:42.484Z,0
2017-05-06T01:03:42.209Z,0
2017-05-06T01:04:42.234Z,0
2017-05-06T01:05:41.960Z,0
2017-05-06T01:06:41.980Z,0
2017-05-06T01:07:42.646Z,0
2017-05-06T01:08:42.340Z,0
2017-05-06T01:09:42.355Z,0
2017-05-06T01:10:42.723Z,0
2017-05-06T01:11:42.714Z,0
2017-05-06T01:12:42.137Z,0
2017-05-06T01:13:42.169Z,0
2017-05-06T01:14:43.078Z,0
2017-05-06T01:15:42.217Z,0
2017-05-06T01:16:42.548Z,0
2017-05-06T01:17:42.905Z,0
2017-05-06T01:18:42.847Z,0
2017-05-06T01:19:42.373Z,0
2017-05-06T01:20:42.942Z,0
2017-05-06T01:21:42.954Z,0
2017-05-06T01:22:43.023Z,0
2017-05-06T01:23:43.336Z,0
2017-05-06T01:24:42.773Z,0
2017-05-06T01:25:42.773Z,0
2017-05-06T01:26:43.510Z,0
2017-05-06T01:27:43.087Z,0
2017-05-06T01:28:43.170Z,0
2017-05-06T01:29:42.593Z,0
2017-05-06T01:30:42.613Z,0
2017-05-06T01:31:42.937Z,0
2017-05-06T01:32:43.577Z,0
2017-05-06T01:33:43.297Z,0
2017-05-06T01:34:43.322Z,0
2017-05-06T01:35:43.659Z,0
2017-05-06T01:36:42.776Z,0
2017-05-06T01:37:43.396Z,0
2017-05-06T01:38:43.467Z,0
2017-05-06T01:39:43.152Z,0
2017-05-06T01:40:42.878Z,0
2017-05-06T01:41:43.205Z,0
2017-05-06T01:42:43.581Z,0
2017-05-06T01:43:43.861Z,0
2017-05-06T01:44:43.591Z,0
2017-05-06T01:45:43.002Z,0
2017-05-06T01:46:43.032Z,0
2017-05-06T01:47:43.968Z,0
2017-05-06T01:48:43.079Z,0
2017-05-06T01:49:43.710Z,0
2017-05-06T01:50:43.737Z,0
2017-05-06T01:51:43.156Z,0
2017-05-06T01:52:43.485Z,0
2017-05-06T01:53:43.820Z,0
2017-05-06T01:54:43.887Z,0
2017-05-06T01:55:43.606Z,0
2017-05-06T01:56:43.585Z,0
2017-05-06T01:57:44.039Z,0
2017-05-06T01:58:44.243Z,0
2017-05-06T01:59:43.966Z,0
2017-05-06T02:00:43.712Z,0
2017-05-06T02:01:44.026Z,0
2017-05-06T02:02:43.742Z,0
2017-05-06T02:03:43.767Z,0
2017-05-06T02:04:43.789Z,0
2017-05-06T02:05:44.434Z,0
2017-05-06T02:06:43.556Z,0
2017-05-06T02:07:43.874Z,0
2017-05-06T02:08:44.200Z,0
2017-05-06T02:09:43.678Z,0
2017-05-06T02:10:44.251Z,0
2017-05-06T02:11:43.682Z,0
2017-05-06T02:12:43.711Z,0
2017-05-06T02:13:44.363Z,0
2017-05-06T02:14:44.402Z,0
2017-05-06T02:15:44.080Z,0
2017-05-06T02:16:44.115Z,0
2017-05-06T02:17:44.400Z,0
2017-05-06T02:18:43.884Z,0
2017-05-06T02:19:43.888Z,0
2017-05-06T02:20:44.824Z,0
2017-05-06T02:21:43.931Z,0
2017-05-06T02:22:43.960Z,0
2017-05-06T02:23:44.608Z,0
2017-05-06T02:24:44.363Z,0
2017-05-06T02:25:44.639Z,0
2017-05-06T02:26:44.361Z,0
2017-05-06T02:27:44.393Z,0
2017-05-06T02:28:45.013Z,0
2017-05-06T02:29:44.745Z,0
2017-05-06T02:30:44.458Z,0
2017-05-06T02:31:44.491Z,0
2017-05-06T02:32:44.814Z,0
2017-05-06T02:33:44.248Z,0
2017-05-06T02:34:44.884Z,0
2017-05-06T02:35:44.903Z,0
2017-05-06T02:36:44.931Z,0
2017-05-06T02:37:44.670Z,0
2017-05-06T02:38:44.969Z,0
2017-05-06T02:39:44.447Z,0
2017-05-06T02:40:44.422Z,0
2017-05-06T02:41:45.049Z,0
2017-05-06T02:42:45.376Z,0
2017-05-06T02:43:44.801Z,0
2017-05-06T02:44:44.847Z,0
2017-05-06T02:45:45.055Z,0
2017-05-06T02:46:44.878Z,0
2017-05-06T02:47:45.509Z,0
2017-05-06T02:48:45.227Z,0
2017-05-06T02:49:44.949Z,0
2017-05-06T02:50:44.683Z,0
2017-05-06T02:51:45.314Z,0
2017-05-06T02:52:45.341Z,0
2017-05-06T02:53:45.057Z,0
2017-05-06T02:54:45.130Z,0
2017-05-06T02:55:45.414Z,0
2017-05-06T02:56:45.126Z,0
2017-05-06T02:57:45.460Z,0
2017-05-06T02:58:46.123Z,0
2017-05-06T02:59:45.506Z,0
2017-05-06T03:00:45.233Z,0
2017-05-06T03:01:45.575Z,0
2017-05-06T03:02:45.007Z,0
2017-05-06T03:03:45.020Z,0
2017-05-06T03:04:45.638Z,0
2017-05-06T03:05:45.089Z,0
2017-05-06T03:06:45.091Z,0
2017-05-06T03:07:45.714Z,0
2017-05-06T03:08:46.042Z,0
2017-05-06T03:09:45.780Z,0
2017-05-06T03:10:45.493Z,0
2017-05-06T03:11:45.521Z,0
2017-05-06T03:12:46.174Z,0
2017-05-06T03:13:45.926Z,0
2017-05-06T03:14:45.897Z,0
2017-05-06T03:15:45.616Z,0
2017-05-06T03:16:45.658Z,0
2017-05-06T03:17:45.382Z,0
2017-05-06T03:18:45.699Z,0
2017-05-06T03:19:45.422Z,0
2017-05-06T03:20:45.880Z,0
2017-05-06T03:21:45.779Z,0
2017-05-06T03:22:45.788Z,0
2017-05-06T03:23:45.833Z,0
2017-05-06T03:24:46.154Z,0
2017-05-06T03:25:45.891Z,0
2017-05-06T03:26:45.906Z,0
2017-05-06T03:27:46.534Z,0
2017-05-06T03:28:46.562Z,0
2017-05-06T03:29:46.291Z,0
2017-05-06T03:30:46.058Z,0
2017-05-06T03:31:46.328Z,0
2017-05-06T03:32:46.667Z,0
2017-05-06T03:33:46.079Z,0
2017-05-06T03:34:46.115Z,0
2017-05-06T03:35:46.128Z,0
2017-05-06T03:36:46.146Z,0
2017-05-06T03:37:46.208Z,0
2017-05-06T03:38:46.260Z,0
2017-05-06T03:39:46.295Z,0
2017-05-06T03:40:46.273Z,0
2017-05-06T03:41:46.290Z,0
2017-05-06T03:42:46.314Z,0
2017-05-06T03:43:46.035Z,0
2017-05-06T03:44:46.665Z,0
2017-05-06T03:45:46.086Z,0
2017-05-06T03:46:46.103Z,0
2017-05-06T03:47:46.797Z,0
2017-05-06T03:48:46.472Z,0
2017-05-06T03:49:46.221Z,0
2017-05-06T03:50:46.208Z,0
2017-05-06T03:51:46.537Z,0
2017-05-06T03:52:46.860Z,0
2017-05-06T03:53:47.193Z,0
2017-05-06T03:54:46.310Z,0
2017-05-06T03:55:46.642Z,0
2017-05-06T03:56:46.981Z,0
2017-05-06T03:57:47.003Z,0
2017-05-06T03:58:47.015Z,0
2017-05-06T03:59:46.510Z,0
2017-05-06T04:00:46.467Z,0
2017-05-06T04:01:46.786Z,0
2017-05-06T04:02:46.819Z,0
2017-05-06T04:03:50.783Z,0
2017-05-06T04:04:49.347Z,0
2017-05-06T04:05:46.613Z,0
2017-05-06T04:06:46.981Z,0
2017-05-06T04:07:46.944Z,0
2017-05-06T04:08:47.311Z,0
2017-05-06T04:09:46.693Z,0
2017-05-06T04:10:47.024Z,0
2017-05-06T04:11:47.363Z,0
2017-05-06T04:12:47.085Z,0
2017-05-06T04:13:47.394Z,0
2017-05-06T04:14:47.125Z,0
2017-05-06T04:15:47.453Z,0
2017-05-06T04:16:46.875Z,0
2017-05-06T04:17:47.495Z,0
2017-05-06T04:18:47.532Z,0
2017-05-06T04:19:47.300Z,0
2017-05-06T04:20:47.586Z,0
2017-05-06T04:21:47.597Z,0
2017-05-06T04:22:47.623Z,0
2017-05-06T04:23:47.352Z,0
2017-05-06T04:24:47.677Z,0
2017-05-06T04:25:48.013Z,0
2017-05-06T04:26:48.039Z,0
2017-05-06T04:27:47.761Z,0
2017-05-06T04:28:48.386Z,0
2017-05-06T04:29:47.252Z,0
2017-05-06T04:30:47.239Z,0
2017-05-06T04:31:47.855Z,0
2017-05-06T04:32:47.881Z,0
2017-05-06T04:33:47.902Z,0
2017-05-06T04:34:47.687Z,0
2017-05-06T04:35:47.356Z,0
2017-05-06T04:36:48.280Z,0
2017-05-06T04:37:48.039Z,0
2017-05-06T04:38:47.751Z,0
2017-05-06T04:39:47.457Z,0
2017-05-06T04:40:47.480Z,0
2017-05-06T04:41:47.852Z,0
2017-05-06T04:42:48.144Z,0
2017-05-06T04:43:47.873Z,0
2017-05-06T04:44:47.881Z,0
2017-05-06T04:45:47.926Z,0
2017-05-06T04:46:47.636Z,0
2017-05-06T04:47:47.975Z,0
2017-05-06T04:48:48.586Z,0
2017-05-06T04:49:48.664Z,0
2017-05-06T04:50:47.739Z,0
2017-05-06T04:51:48.065Z,0
2017-05-06T04:52:48.394Z,0
2017-05-06T04:53:48.694Z,0
2017-05-06T04:54:48.740Z,0
2017-05-06T04:55:48.167Z,0
2017-05-06T04:56:48.796Z,0
2017-05-06T04:57:48.215Z,0
2017-05-06T04:58:47.941Z,0
2017-05-06T04:59:48.567Z,0
2017-05-06T05:00:48.000Z,0
2017-05-06T05:01:48.918Z,0
2017-05-06T05:02:48.649Z,0
2017-05-06T05:03:48.383Z,0
2017-05-06T05:04:49.051Z,0
2017-05-06T05:05:48.118Z,0
2017-05-06T05:06:48.750Z,0
2017-05-06T05:07:48.770Z,0
2017-05-06T05:08:48.195Z,0
2017-05-06T05:09:48.220Z,0
2017-05-06T05:10:48.253Z,0
2017-05-06T05:11:48.871Z,0
2017-05-06T05:12:48.593Z,0
2017-05-06T05:13:49.232Z,0
2017-05-06T05:14:48.641Z,0
2017-05-06T05:15:48.679Z,0
2017-05-06T05:16:48.394Z,0
2017-05-06T05:17:49.022Z,0
2017-05-06T05:18:49.052Z,0
2017-05-06T05:19:48.816Z,0
2017-05-06T05:20:48.795Z,0
2017-05-06T05:21:49.119Z,0
2017-05-06T05:22:49.162Z,0
2017-05-06T05:23:48.572Z,5
2017-05-06T05:24:48.603Z,5
2017-05-06T05:25:48.647Z,5
2017-05-06T05:26:48.959Z,5
2017-05-06T05:27:48.981Z,5
2017-05-06T05:28:49.299Z,5
2017-05-06T05:29:49.640Z,5
2017-05-06T05:30:49.355Z,5
2017-05-06T05:31:49.093Z,5
2017-05-06T05:32:49.706Z,5
2017-05-06T05:33:49.147Z,5
2017-05-06T05:34:49.161Z,5
2017-05-06T05:35:50.236Z,5
2017-05-06T05:36:49.237Z,5
2017-05-06T05:37:49.236Z,5
2017-05-06T05:38:49.267Z,5
2017-05-06T05:39:49.589Z,5
2017-05-06T05:40:49.018Z,5
2017-05-06T05:41:49.340Z,5
2017-05-06T05:42:49.667Z,5
2017-05-06T05:43:49.408Z,5
2017-05-06T05:44:49.410Z,5
2017-05-06T05:45:49.443Z,5
2017-05-06T05:46:49.475Z,5
2017-05-06T05:47:49.490Z,5
2017-05-06T05:48:49.528Z,5
2017-05-06T05:49:50.152Z,5
2017-05-06T05:50:49.877Z,5
2017-05-06T05:51:49.606Z,5
2017-05-06T05:52:49.926Z,5
2017-05-06T05:53:49.994Z,5
2017-05-06T05:54:49.670Z,5
2017-05-06T05:55:50.066Z,5
2017-05-06T05:56:50.508Z,5
2017-05-06T05:57:50.045Z,5
2017-05-06T05:58:49.771Z,5
2017-05-06T05:59:50.406Z,5
2017-05-06T06:00:49.524Z,5
2017-05-06T06:01:49.875Z,5
2017-05-06T06:02:49.871Z,5
2017-05-06T06:03:49.903Z,5
2017-05-06T06:04:50.535Z,5
2017-05-06T06:05:49.956Z,5
2017-05-06T06:06:50.282Z,5
2017-05-06T06:07:50.016Z,5
2017-05-06T06:08:49.780Z,5
2017-05-06T06:09:50.368Z,5
2017-05-06T06:10:50.080Z,5
2017-05-06T06:11:49.803Z,5
2017-05-06T06:12:50.446Z,5
2017-05-06T06:13:49.862Z,5
2017-05-06T06:14:50.486Z,5
2017-05-06T06:15:49.914Z,5
2017-05-06T06:16:50.549Z,5
2017-05-06T06:17:49.969Z,5
2017-05-06T06:18:50.898Z,5
2017-05-06T06:19:50.319Z,5
2017-05-06T06:20:50.345Z,5
2017-05-06T06:21:50.393Z,5
2017-05-06T06:22:50.391Z,5
2017-05-06T06:23:50.471Z,5
2017-05-06T06:24:50.441Z,5
2017-05-06T06:25:50.473Z,5
2017-05-06T06:26:50.503Z,5
2017-05-06T06:27:50.525Z,5
2017-05-06T06:28:50.564Z,5
2017-05-06T06:29:50.589Z,5
2017-05-06T06:30:50.613Z,5
2017-05-06T06:31:50.629Z,5
2017-05-06T06:32:50.667Z,5
2017-05-06T06:33:51.284Z,5
2017-05-06T06:34:50.726Z,5
2017-05-06T06:35:50.445Z,5
2017-05-06T06:36:50.461Z,5
2017-05-06T06:37:51.106Z,5
2017-05-06T06:38:50.514Z,10
2017-05-06T06:39:50.834Z,10
2017-05-06T06:40:50.863Z,10
2017-05-06T06:41:50.908Z,10
2017-05-06T06:42:50.962Z,10
2017-05-06T06:43:50.964Z,10
2017-05-06T06:44:51.267Z,10
2017-05-06T06:45:50.704Z,10
2017-05-06T06:46:51.036Z,10
2017-05-06T06:47:51.360Z,10
2017-05-06T06:48:51.068Z,10
2017-05-06T06:49:51.394Z,10
2017-05-06T06:50:51.728Z,10
2017-05-06T06:51:51.148Z,10
2017-05-06T06:52:50.884Z,10
2017-05-06T06:53:51.509Z,10
2017-05-06T06:54:51.230Z,10
2017-05-06T06:55:51.255Z,10
2017-05-06T06:56:51.285Z,10
2017-05-06T06:57:51.919Z,10
2017-05-06T06:58:51.331Z,10
2017-05-06T06:59:51.585Z,10
2017-05-06T07:00:51.690Z,10
2017-05-06T07:01:51.429Z,10
2017-05-06T07:02:51.438Z,10
2017-05-06T07:03:51.764Z,10
2017-05-06T07:04:51.498Z,10
2017-05-06T07:05:51.518Z,10
2017-05-06T07:06:51.869Z,10
2017-05-06T07:07:51.281Z,10
2017-05-06T07:08:51.310Z,10
2017-05-06T07:09:51.344Z,10
2017-05-06T07:10:51.660Z,10
2017-05-06T07:11:51.679Z,10
2017-05-06T07:12:51.405Z,10
2017-05-06T07:13:51.733Z,10
2017-05-06T07:14:51.760Z,10
2017-05-06T07:15:52.154Z,10
2017-05-06T07:16:51.841Z,10
2017-05-06T07:17:51.844Z,10
2017-05-06T07:18:51.560Z,10
2017-05-06T07:19:51.598Z,10
2017-05-06T07:20:51.630Z,10
2017-05-06T07:21:51.955Z,10
2017-05-06T07:22:51.670Z,10
2017-05-06T07:23:52.634Z,10
2017-05-06T07:24:51.728Z,10
2017-05-06T07:25:52.080Z,10
2017-05-06T07:26:51.768Z,10
2017-05-06T07:27:52.406Z,10
2017-05-06T07:28:52.465Z,10
2017-05-06T07:29:52.170Z,10
2017-05-06T07:30:51.889Z,10
2017-05-06T07:31:52.216Z,10
2017-05-06T07:32:52.240Z,10
2017-05-06T07:33:52.922Z,10
2017-05-06T07:34:52.603Z,10
2017-05-06T07:35:52.636Z,10
2017-05-06T07:36:52.349Z,10
2017-05-06T07:37:52.684Z,10
2017-05-06T07:38:52.407Z,10
2017-05-06T07:39:52.722Z,10
2017-05-06T07:40:52.756Z,10
2017-05-06T07:41:52.791Z,10
2017-05-06T07:42:52.809Z,10
2017-05-06T07:43:52.540Z,10
2017-05-06T07:44:52.872Z,10
2017-05-06T07:45:52.609Z,10
2017-05-06T07:46:52.619Z,10
2017-05-06T07:47:52.639Z,10
2017-05-06T07:48:52.374Z,15
2017-05-06T07:49:53.292Z,15
2017-05-06T07:50:52.730Z,15
2017-05-06T07:51:52.448Z,15
2017-05-06T07:52:53.125Z,15
2017-05-06T07:53:52.952Z,15
2017-05-06T07:54:52.521Z,15
2017-05-06T07:55:52.553Z,15
2017-05-06T07:56:52.882Z,15
2017-05-06T07:57:53.219Z,15
2017-05-06T07:58:52.639Z,15
2017-05-06T07:59:52.666Z,15
2017-05-06T08:00:52.988Z,15
2017-05-06T08:01:52.726Z,15
2017-05-06T08:02:53.345Z,15
2017-05-06T08:03:53.069Z,15
2017-05-06T08:04:53.102Z,15
2017-05-06T08:05:53.129Z,15
2017-05-06T08:06:53.457Z,15
2017-05-06T08:07:53.673Z,15
2017-05-06T08:08:52.954Z,15
2017-05-06T08:09:53.238Z,15
2017-05-06T08:10:53.887Z,15
2017-05-06T08:11:53.595Z,15
2017-05-06T08:12:53.010Z,15
2017-05-06T08:13:53.348Z,15
2017-05-06T08:14:53.402Z,15
2017-05-06T08:15:53.401Z,15
2017-05-06T08:16:53.449Z,15
2017-05-06T08:17:53.141Z,15
2017-05-06T08:18:53.175Z,20
2017-05-06T08:19:53.505Z,20
2017-05-06T08:20:53.530Z,15
2017-05-06T08:21:53.865Z,15
2017-05-06T08:22:53.286Z,10
2017-05-06T08:23:53.680Z,15
2017-05-06T08:24:53.645Z,15
2017-05-06T08:25:53.670Z,15
2017-05-06T08:26:53.692Z,15
2017-05-06T08:27:53.609Z,15
2017-05-06T08:28:53.450Z,15
2017-05-06T08:29:54.078Z,15
2017-05-06T08:30:53.503Z,15
2017-05-06T08:31:54.138Z,15
2017-05-06T08:32:53.555Z,15
2017-05-06T08:33:53.797Z,15
2017-05-06T08:34:54.218Z,15
2017-05-06T08:35:53.641Z,15
2017-05-06T08:36:54.268Z,15
2017-05-06T08:37:53.991Z,15
2017-05-06T08:38:54.028Z,15
2017-05-06T08:39:53.749Z,15
2017-05-06T08:40:54.164Z,15
2017-05-06T08:41:53.808Z,15
2017-05-06T08:42:53.977Z,15
2017-05-06T08:43:53.860Z,20
2017-05-06T08:44:53.887Z,20
2017-05-06T08:45:54.220Z,20
2017-05-06T08:46:53.936Z,20
2017-05-06T08:47:54.604Z,20
2017-05-06T08:48:53.998Z,20
2017-05-06T08:49:54.027Z,20
2017-05-06T08:50:54.051Z,20
2017-05-06T08:51:54.692Z,20
2017-05-06T08:52:55.013Z,20
2017-05-06T08:53:54.433Z,20
2017-05-06T08:54:54.777Z,20
2017-05-06T08:55:54.853Z,20
2017-05-06T08:56:54.550Z,20
2017-05-06T08:57:54.862Z,20
2017-05-06T08:58:54.878Z,20
2017-05-06T08:59:54.652Z,20
2017-05-06T09:00:54.337Z,20
2017-05-06T09:01:54.666Z,15
2017-05-06T09:02:54.795Z,15
2017-05-06T09:03:55.045Z,20
2017-05-06T09:04:55.066Z,20
2017-05-06T09:05:55.082Z,20
2017-05-06T09:06:54.813Z,20
2017-05-06T09:07:55.142Z,15
2017-05-06T09:08:54.850Z,20
2017-05-06T09:09:55.191Z,20
2017-05-06T09:10:54.906Z,20
2017-05-06T09:11:55.039Z,20
2017-05-06T09:12:55.620Z,20
2017-05-06T09:13:55.020Z,20
2017-05-06T09:14:54.723Z,20
2017-05-06T09:15:55.974Z,20
2017-05-06T09:16:55.084Z,20
2017-05-06T09:17:55.113Z,20
2017-05-06T09:18:55.133Z,25
2017-05-06T09:19:55.171Z,20
2017-05-06T09:20:55.500Z,20
2017-05-06T09:21:54.925Z,20
2017-05-06T09:22:54.948Z,25
2017-05-06T09:23:55.604Z,25
2017-05-06T09:24:55.030Z,20
2017-05-06T09:25:55.342Z,25
2017-05-06T09:26:55.362Z,25
2017-05-06T09:27:55.444Z,20
2017-05-06T09:28:55.722Z,25
2017-05-06T09:29:55.457Z,25
2017-05-06T09:30:55.183Z,25
2017-05-06T09:31:55.364Z,25
2017-05-06T09:32:55.856Z,30
2017-05-06T09:33:55.864Z,30
2017-05-06T09:34:55.589Z,30
2017-05-06T09:35:55.929Z,25
2017-05-06T09:36:55.950Z,25
2017-05-06T09:37:55.677Z,30
2017-05-06T09:38:55.999Z,30
2017-05-06T09:39:55.758Z,30
2017-05-06T09:40:56.073Z,30
2017-05-06T09:41:55.812Z,30
2017-05-06T09:42:56.129Z,35
2017-05-06T09:43:56.220Z,35
2017-05-06T09:44:56.484Z,40
2017-05-06T09:45:56.508Z,40
2017-05-06T09:46:55.937Z,55
2017-05-06T09:47:55.969Z,85
2017-05-06T09:48:56.321Z,195
2017-05-06T09:49:55.728Z,265
2017-05-06T09:50:56.052Z,280
2017-05-06T09:51:55.772Z,265
2017-05-06T09:52:56.111Z,330
2017-05-06T09:53:55.832Z,185
2017-05-06T09:54:55.896Z,290
2017-05-06T09:55:56.270Z,320
2017-05-06T09:56:56.538Z,335
2017-05-06T09:57:56.876Z,325
2017-05-06T09:58:56.652Z,300
2017-05-06T09:59:56.026Z,265
2017-05-06T10:00:56.973Z,225
2017-05-06T10:01:56.087Z,205
2017-05-06T10:02:56.165Z,195
2017-05-06T10:03:56.150Z,190
2017-05-06T10:04:56.191Z,180
2017-05-06T10:05:56.228Z,165
2017-05-06T10:06:56.255Z,155
2017-05-06T10:07:56.295Z,140
2017-05-06T10:08:56.909Z,130
2017-05-06T10:09:56.958Z,130
2017-05-06T10:10:56.392Z,130
2017-05-06T10:11:57.034Z,135
2017-05-06T10:12:56.775Z,140
2017-05-06T10:13:57.409Z,140
2017-05-06T10:14:57.187Z,145
2017-05-06T10:15:57.174Z,145
2017-05-06T10:16:56.897Z,145
2017-05-06T10:17:56.939Z,145
2017-05-06T10:18:56.958Z,150
2017-05-06T10:19:57.009Z,150
2017-05-06T10:20:57.033Z,155
2017-05-06T10:21:56.774Z,155
2017-05-06T10:22:57.117Z,160
2017-05-06T10:23:56.841Z,165
2017-05-06T10:24:57.188Z,175
2017-05-06T10:25:56.900Z,175
2017-05-06T10:26:57.238Z,185
2017-05-06T10:27:57.586Z,195
2017-05-06T10:28:57.916Z,205
2017-05-06T10:29:57.065Z,210
2017-05-06T10:30:57.095Z,220
2017-05-06T10:31:57.122Z,225
2017-05-06T10:32:57.747Z,235
2017-05-06T10:33:57.527Z,240
2017-05-06T10:34:57.522Z,240
2017-05-06T10:35:57.570Z,240
2017-05-06T10:36:57.584Z,235
2017-05-06T10:37:57.364Z,235
2017-05-06T10:38:57.968Z,235
2017-05-06T10:39:57.383Z,240
2017-05-06T10:40:57.420Z,235
2017-05-06T10:41:57.764Z,235
2017-05-06T10:42:57.995Z,225
2017-05-06T10:43:57.833Z,190
2017-05-06T10:44:57.882Z,200
2017-05-06T10:45:57.942Z,205
2017-05-06T10:46:57.641Z,225
2017-05-06T10:47:57.962Z,230
2017-05-06T10:48:58.310Z,210
2017-05-06T10:49:57.783Z,165
2017-05-06T10:50:57.794Z,145
2017-05-06T10:51:58.232Z,150
2017-05-06T10:52:58.460Z,170
2017-05-06T10:53:58.182Z,160
2017-05-06T10:54:57.923Z,145
2017-05-06T10:55:57.958Z,140
2017-05-06T10:56:58.599Z,135
2017-05-06T10:57:58.618Z,130
2017-05-06T10:58:58.397Z,125
2017-05-06T10:59:58.691Z,125
2017-05-06T11:00:58.136Z,120
2017-05-06T11:01:59.068Z,115
2017-05-06T11:02:58.501Z,110
2017-05-06T11:03:58.563Z,105
2017-05-06T11:04:58.272Z,100
2017-05-06T11:05:58.684Z,90
2017-05-06T11:06:58.712Z,75
2017-05-06T11:07:58.974Z,70
2017-05-06T11:08:58.417Z,70
2017-05-06T11:09:58.750Z,65
2017-05-06T11:10:58.480Z,65
2017-05-06T11:11:58.825Z,60
2017-05-06T11:12:58.844Z,55
2017-05-06T11:13:58.574Z,45
2017-05-06T11:14:58.916Z,60
2017-05-06T11:15:58.949Z,45
2017-05-06T11:16:58.680Z,60
2017-05-06T11:17:59.333Z,65
2017-05-06T11:18:59.058Z,65
2017-05-06T11:19:59.428Z,75
2017-05-06T11:20:58.828Z,70
2017-05-06T11:21:59.180Z,70
2017-05-06T11:22:59.187Z,70
2017-05-06T11:23:59.146Z,70
2017-05-06T11:24:59.293Z,70
2017-05-06T11:25:59.582Z,70
2017-05-06T11:26:59.024Z,70
2017-05-06T11:27:59.348Z,65
2017-05-06T11:28:59.710Z,65
2017-05-06T11:29:59.464Z,65
2017-05-06T11:30:59.439Z,50
2017-05-06T11:31:59.485Z,55
2017-05-06T11:32:59.208Z,45
2017-05-06T11:33:59.546Z,60
2017-05-06T11:34:59.278Z,50
2017-05-06T11:35:59.299Z,50
2017-05-06T11:36:59.645Z,45
2017-05-06T11:37:59.667Z,50
2017-05-06T11:38:59.396Z,50
2017-05-06T11:39:59.786Z,50
2017-05-06T11:40:59.765Z,50
2017-05-06T11:41:59.791Z,50
2017-05-06T11:43:00.120Z,45
2017-05-06T11:43:59.566Z,45
2017-05-06T11:45:00.489Z,45
2017-05-06T11:45:59.936Z,45
2017-05-06T11:47:00.367Z,40
2017-05-06T11:48:00.025Z,45
2017-05-06T11:48:59.738Z,50
2017-05-06T11:49:59.755Z,50
2017-05-06T11:51:00.073Z,45
2017-05-06T11:52:00.106Z,40
2017-05-06T11:52:59.890Z,50
2017-05-06T11:54:00.472Z,50
2017-05-06T11:55:00.808Z,50
2017-05-06T11:56:00.371Z,50
2017-05-06T11:57:00.268Z,50
2017-05-06T11:58:00.136Z,50
2017-05-06T11:59:00.028Z,50
2017-05-06T12:00:00.670Z,50
2017-05-06T12:01:00.086Z,50
2017-05-06T12:02:00.110Z,50
2017-05-06T12:03:00.450Z,55
2017-05-06T12:04:00.480Z,55
2017-05-06T12:05:00.207Z,55
2017-05-06T12:06:00.844Z,40
2017-05-06T12:07:00.263Z,35
2017-05-06T12:08:00.597Z,30
2017-05-06T12:09:00.382Z,25
2017-05-06T12:10:01.084Z,25
2017-05-06T12:11:00.703Z,30
2017-05-06T12:12:00.429Z,40
2017-05-06T12:13:00.456Z,50
2017-05-06T12:14:00.544Z,60
2017-05-06T12:15:00.836Z,40
2017-05-06T12:16:00.953Z,45
2017-05-06T12:17:00.895Z,35
2017-05-06T12:18:01.220Z,35
2017-05-06T12:19:00.662Z,35
2017-05-06T12:20:01.296Z,35
2017-05-06T12:21:00.720Z,40
2017-05-06T12:22:01.344Z,35
2017-05-06T12:23:00.765Z,35
2017-05-06T12:24:00.957Z,35
2017-05-06T12:25:00.829Z,30
2017-05-06T12:26:01.182Z,30
2017-05-06T12:27:01.199Z,25
2017-05-06T12:28:01.229Z,25
2017-05-06T12:29:01.294Z,25
2017-05-06T12:30:01.287Z,25
2017-05-06T12:31:01.366Z,25
2017-05-06T12:32:01.058Z,25
2017-05-06T12:33:01.401Z,20
2017-05-06T12:34:01.398Z,20
2017-05-06T12:35:01.445Z,20
2017-05-06T12:36:01.163Z,35
2017-05-06T12:37:01.496Z,25
2017-05-06T12:38:01.233Z,30
2017-05-06T12:39:01.588Z,25
2017-05-06T12:40:01.921Z,25
2017-05-06T12:41:01.631Z,30
2017-05-06T12:42:01.357Z,45
2017-05-06T12:43:01.694Z,55
2017-05-06T12:44:02.014Z,50
2017-05-06T12:45:02.348Z,55
2017-05-06T12:46:02.098Z,45
2017-05-06T12:47:02.471Z,50
2017-05-06T12:48:01.847Z,45
2017-05-06T12:49:01.573Z,40
2017-05-06T12:50:01.607Z,45
2017-05-06T12:51:01.639Z,45
2017-05-06T12:52:01.984Z,40
2017-05-06T12:53:02.305Z,15
2017-05-06T12:54:01.756Z,35
2017-05-06T12:55:02.066Z,45
2017-05-06T12:56:02.385Z,30
2017-05-06T12:57:02.106Z,35
2017-05-06T12:58:02.748Z,25
2017-05-06T12:59:02.184Z,25
2017-05-06T13:00:02.508Z,40
2017-05-06T13:01:02.866Z,40
2017-05-06T13:02:02.013Z,40
2017-05-06T13:03:02.298Z,40
2017-05-06T13:04:02.333Z,40
2017-05-06T13:05:02.056Z,35
2017-05-06T13:06:02.092Z,35
2017-05-06T13:07:02.209Z,35
2017-05-06T13:08:02.147Z,40
2017-05-06T13:09:02.503Z,35
2017-05-06T13:10:02.518Z,35
2017-05-06T13:11:02.251Z,35
2017-05-06T13:12:02.577Z,35
2017-05-06T13:13:02.614Z,35
2017-05-06T13:14:02.635Z,35
2017-05-06T13:15:02.360Z,35
2017-05-06T13:16:02.997Z,35
2017-05-06T13:17:03.032Z,35
2017-05-06T13:18:02.755Z,35
2017-05-06T13:19:02.867Z,35
2017-05-06T13:20:02.511Z,35
2017-05-06T13:21:02.867Z,35
2017-05-06T13:22:02.581Z,35
2017-05-06T13:23:03.564Z,35
2017-05-06T13:24:02.644Z,30
2017-05-06T13:25:03.290Z,30
2017-05-06T13:26:03.118Z,30
2017-05-06T13:27:03.058Z,30
2017-05-06T13:28:03.071Z,30
2017-05-06T13:29:03.096Z,35
2017-05-06T13:30:02.822Z,30
2017-05-06T13:31:03.760Z,30
2017-05-06T13:32:03.494Z,30
2017-05-06T13:33:03.151Z,30
2017-05-06T13:34:03.451Z,30
2017-05-06T13:35:03.259Z,30
2017-05-06T13:36:03.363Z,30
2017-05-06T13:37:03.345Z,30
2017-05-06T13:38:03.369Z,30
2017-05-06T13:39:03.699Z,25
2017-05-06T13:40:03.729Z,25
2017-05-06T13:41:03.164Z,25
2017-05-06T13:42:03.770Z,25
2017-05-06T13:43:03.535Z,25
2017-05-06T13:44:03.568Z,25
2017-05-06T13:45:03.292Z,25
2017-05-06T13:46:03.919Z,25
2017-05-06T13:47:03.987Z,25
2017-05-06T13:48:04.276Z,25
2017-05-06T13:49:04.014Z,25
2017-05-06T13:50:03.746Z,25
2017-05-06T13:51:03.506Z,25
2017-05-06T13:52:03.853Z,25
2017-05-06T13:53:03.538Z,25
2017-05-06T13:54:03.865Z,25
2017-05-06T13:55:03.895Z,25
2017-05-06T13:56:03.625Z,25
2017-05-06T13:57:03.657Z,20
2017-05-06T13:58:03.685Z,20
2017-05-06T13:59:03.729Z,20
2017-05-06T14:00:03.744Z,20
2017-05-06T14:01:03.776Z,20
2017-05-06T14:02:04.734Z,20
2017-05-06T14:03:04.153Z,20
2017-05-06T14:04:04.478Z,20
2017-05-06T14:05:04.219Z,20
2017-05-06T14:06:04.265Z,20
2017-05-06T14:07:04.594Z,20
2017-05-06T14:08:04.652Z,20
2017-05-06T14:09:04.034Z,20
2017-05-06T14:10:04.361Z,20
2017-05-06T14:11:04.289Z,20
2017-05-06T14:12:04.726Z,20
2017-05-06T14:13:04.460Z,15
2017-05-06T14:14:04.202Z,15
2017-05-06T14:15:04.821Z,15
2017-05-06T14:16:04.584Z,15
2017-05-06T14:17:04.585Z,15
2017-05-06T14:18:04.745Z,15
2017-05-06T14:19:04.336Z,15
2017-05-06T14:20:04.385Z,15
2017-05-06T14:21:04.397Z,15
2017-05-06T14:22:04.435Z,15
2017-05-06T14:23:05.082Z,15
2017-05-06T14:24:04.568Z,15
2017-05-06T14:25:04.524Z,15
2017-05-06T14:26:04.555Z,15
2017-05-06T14:27:04.893Z,15
2017-05-06T14:28:04.625Z,15